sensor_id;sensor_type;location;lat;lon;timestamp;P1;durP1;ratioP1;P2;durP2;ratioP2
36423;SDS011;22458;45.328;9.514;2023-05-25T00:01:42;6.18;;;3.83;;
36423;SDS011;22458;45.328;9.514;2023-05-25T00:04:08;6.47;;;4.43;;
36423;SDS011;22458;45.328;9.514;2023-05-25T00:06:35;5.75;;;4.30;;
36423;SDS011;22458;45.328;9.514;2023-05-25T00:09:05;4.72;;;4.18;;
36423;SDS011;22458;45.328;9.514;2023-05-25T00:11:31;4.40;;;3.97;;
36423;SDS011;22458;45.328;9.514;2023-05-25T00:13:57;4.82;;;3.60;;
36423;SDS011;22458;45.328;9.514;2023-05-25T00:16:23;4.57;;;3.90;;
36423;SDS011;22458;45.328;9.514;2023-05-25T00:18:49;6.65;;;4.03;;
36423;SDS011;22458;45.328;9.514;2023-05-25T00:21:15;6.65;;;3.83;;
36423;SDS011;22458;45.328;9.514;2023-05-25T00:23:43;4.65;;;3.92;;
36423;SDS011;22458;45.328;9.514;2023-05-25T00:26:10;5.07;;;4.10;;
36423;SDS011;22458;45.328;9.514;2023-05-25T00:28:35;5.18;;;3.63;;
36423;SDS011;22458;45.328;9.514;2023-05-25T00:31:01;4.65;;;4.10;;
36423;SDS011;22458;45.328;9.514;2023-05-25T00:33:27;6.65;;;4.00;;
36423;SDS011;22458;45.328;9.514;2023-05-25T00:35:53;6.03;;;4.18;;
36423;SDS011;22458;45.328;9.514;2023-05-25T00:38:18;5.82;;;4.22;;
36423;SDS011;22458;45.328;9.514;2023-05-25T00:40:45;4.70;;;4.05;;
36423;SDS011;22458;45.328;9.514;2023-05-25T00:43:11;4.57;;;3.90;;
36423;SDS011;22458;45.328;9.514;2023-05-25T00:45:37;4.28;;;3.40;;
36423;SDS011;22458;45.328;9.514;2023-05-25T00:48:03;4.53;;;3.97;;
36423;SDS011;22458;45.328;9.514;2023-05-25T00:50:37;4.95;;;3.55;;
36423;SDS011;22458;45.328;9.514;2023-05-25T00:53:05;7.00;;;3.95;;
36423;SDS011;22458;45.328;9.514;2023-05-25T00:55:32;5.75;;;4.00;;
36423;SDS011;22458;45.328;9.514;2023-05-25T00:58:05;7.63;;;3.72;;
36423;SDS011;22458;45.328;9.514;2023-05-25T01:00:33;4.18;;;3.70;;
36423;SDS011;22458;45.328;9.514;2023-05-25T01:03:00;5.25;;;3.72;;
36423;SDS011;22458;45.328;9.514;2023-05-25T01:05:31;6.90;;;3.63;;
36423;SDS011;22458;45.328;9.514;2023-05-25T01:07:59;4.40;;;3.30;;
36423;SDS011;22458;45.328;9.514;2023-05-25T01:10:27;4.20;;;3.45;;
36423;SDS011;22458;45.328;9.514;2023-05-25T01:12:57;5.38;;;3.92;;
36423;SDS011;22458;45.328;9.514;2023-05-25T01:15:27;4.45;;;3.60;;
36423;SDS011;22458;45.328;9.514;2023-05-25T01:17:55;5.72;;;3.70;;
36423;SDS011;22458;45.328;9.514;2023-05-25T01:20:26;6.45;;;3.70;;
36423;SDS011;22458;45.328;9.514;2023-05-25T01:22:58;5.10;;;3.90;;
36423;SDS011;22458;45.328;9.514;2023-05-25T01:25:33;6.15;;;3.90;;
36423;SDS011;22458;45.328;9.514;2023-05-25T01:28:06;4.22;;;3.38;;
36423;SDS011;22458;45.328;9.514;2023-05-25T01:30:35;4.28;;;3.30;;
36423;SDS011;22458;45.328;9.514;2023-05-25T01:33:04;7.18;;;3.60;;
36423;SDS011;22458;45.328;9.514;2023-05-25T01:35:31;3.60;;;3.20;;
36423;SDS011;22458;45.328;9.514;2023-05-25T01:37:58;6.40;;;3.65;;
36423;SDS011;22458;45.328;9.514;2023-05-25T01:40:23;4.47;;;3.70;;
36423;SDS011;22458;45.328;9.514;2023-05-25T01:42:50;6.25;;;3.55;;
36423;SDS011;22458;45.328;9.514;2023-05-25T01:45:16;5.28;;;3.90;;
36423;SDS011;22458;45.328;9.514;2023-05-25T01:50:29;6.45;;;3.72;;
36423;SDS011;22458;45.328;9.514;2023-05-25T01:53:05;5.15;;;3.80;;
36423;SDS011;22458;45.328;9.514;2023-05-25T01:55:40;4.80;;;3.28;;
36423;SDS011;22458;45.328;9.514;2023-05-25T01:58:19;8.52;;;4.07;;
36423;SDS011;22458;45.328;9.514;2023-05-25T02:00:46;7.05;;;3.78;;
36423;SDS011;22458;45.328;9.514;2023-05-25T02:03:16;3.78;;;3.38;;
36423;SDS011;22458;45.328;9.514;2023-05-25T02:05:42;5.97;;;4.10;;
36423;SDS011;22458;45.328;9.514;2023-05-25T02:08:10;8.30;;;3.45;;
36423;SDS011;22458;45.328;9.514;2023-05-25T02:10:35;4.70;;;3.53;;
36423;SDS011;22458;45.328;9.514;2023-05-25T02:13:01;6.00;;;3.38;;
36423;SDS011;22458;45.328;9.514;2023-05-25T02:15:29;5.03;;;3.78;;
36423;SDS011;22458;45.328;9.514;2023-05-25T02:17:56;5.28;;;3.95;;
36423;SDS011;22458;45.328;9.514;2023-05-25T02:20:26;4.88;;;3.72;;
36423;SDS011;22458;45.328;9.514;2023-05-25T02:22:52;5.93;;;3.95;;
36423;SDS011;22458;45.328;9.514;2023-05-25T02:25:18;5.60;;;4.45;;
36423;SDS011;22458;45.328;9.514;2023-05-25T02:27:44;4.75;;;3.53;;
36423;SDS011;22458;45.328;9.514;2023-05-25T02:30:10;4.85;;;3.85;;
36423;SDS011;22458;45.328;9.514;2023-05-25T02:32:36;7.40;;;3.45;;
36423;SDS011;22458;45.328;9.514;2023-05-25T02:35:02;4.88;;;2.88;;
36423;SDS011;22458;45.328;9.514;2023-05-25T02:37:28;4.30;;;3.03;;
36423;SDS011;22458;45.328;9.514;2023-05-25T02:39:53;6.15;;;3.72;;
36423;SDS011;22458;45.328;9.514;2023-05-25T02:42:20;5.13;;;3.55;;
36423;SDS011;22458;45.328;9.514;2023-05-25T02:44:46;6.40;;;3.58;;
36423;SDS011;22458;45.328;9.514;2023-05-25T02:47:13;4.93;;;3.33;;
36423;SDS011;22458;45.328;9.514;2023-05-25T02:49:40;5.03;;;3.50;;
36423;SDS011;22458;45.328;9.514;2023-05-25T02:52:07;5.25;;;3.42;;
36423;SDS011;22458;45.328;9.514;2023-05-25T02:54:33;4.80;;;3.30;;
36423;SDS011;22458;45.328;9.514;2023-05-25T02:57:01;5.93;;;3.85;;
36423;SDS011;22458;45.328;9.514;2023-05-25T02:59:29;6.90;;;3.67;;
36423;SDS011;22458;45.328;9.514;2023-05-25T03:01:59;4.80;;;4.03;;
36423;SDS011;22458;45.328;9.514;2023-05-25T03:04:25;4.43;;;3.67;;
36423;SDS011;22458;45.328;9.514;2023-05-25T03:06:53;6.88;;;4.53;;
36423;SDS011;22458;45.328;9.514;2023-05-25T03:09:20;5.50;;;3.83;;
36423;SDS011;22458;45.328;9.514;2023-05-25T03:11:48;6.53;;;4.00;;
36423;SDS011;22458;45.328;9.514;2023-05-25T03:14:16;5.25;;;3.63;;
36423;SDS011;22458;45.328;9.514;2023-05-25T03:16:47;4.38;;;3.67;;
36423;SDS011;22458;45.328;9.514;2023-05-25T03:19:13;5.22;;;4.45;;
36423;SDS011;22458;45.328;9.514;2023-05-25T03:21:39;5.70;;;3.72;;
36423;SDS011;22458;45.328;9.514;2023-05-25T03:24:05;6.65;;;3.83;;
36423;SDS011;22458;45.328;9.514;2023-05-25T03:26:31;4.43;;;3.60;;
36423;SDS011;22458;45.328;9.514;2023-05-25T03:28:59;4.22;;;3.53;;
36423;SDS011;22458;45.328;9.514;2023-05-25T03:31:25;7.90;;;4.10;;
36423;SDS011;22458;45.328;9.514;2023-05-25T03:33:51;4.22;;;3.60;;
36423;SDS011;22458;45.328;9.514;2023-05-25T03:36:18;5.18;;;3.60;;
36423;SDS011;22458;45.328;9.514;2023-05-25T03:38:46;5.30;;;3.45;;
36423;SDS011;22458;45.328;9.514;2023-05-25T03:41:12;6.30;;;4.00;;
36423;SDS011;22458;45.328;9.514;2023-05-25T03:43:38;7.20;;;4.60;;
36423;SDS011;22458;45.328;9.514;2023-05-25T03:46:05;8.77;;;3.67;;
36423;SDS011;22458;45.328;9.514;2023-05-25T03:48:31;5.57;;;3.90;;
36423;SDS011;22458;45.328;9.514;2023-05-25T03:50:56;5.68;;;3.88;;
36423;SDS011;22458;45.328;9.514;2023-05-25T03:53:22;6.38;;;4.00;;
36423;SDS011;22458;45.328;9.514;2023-05-25T03:55:48;5.95;;;3.75;;
36423;SDS011;22458;45.328;9.514;2023-05-25T03:58:16;6.80;;;4.50;;
36423;SDS011;22458;45.328;9.514;2023-05-25T04:00:42;9.27;;;4.10;;
36423;SDS011;22458;45.328;9.514;2023-05-25T04:03:08;4.30;;;3.78;;
36423;SDS011;22458;45.328;9.514;2023-05-25T04:05:35;5.03;;;4.43;;
36423;SDS011;22458;45.328;9.514;2023-05-25T04:08:02;7.88;;;4.60;;
36423;SDS011;22458;45.328;9.514;2023-05-25T04:10:28;7.80;;;4.55;;
36423;SDS011;22458;45.328;9.514;2023-05-25T04:12:54;5.97;;;4.68;;
36423;SDS011;22458;45.328;9.514;2023-05-25T04:15:24;9.23;;;4.40;;
36423;SDS011;22458;45.328;9.514;2023-05-25T04:18:07;5.35;;;4.40;;
36423;SDS011;22458;45.328;9.514;2023-05-25T04:20:33;5.80;;;4.50;;
36423;SDS011;22458;45.328;9.514;2023-05-25T04:22:59;6.80;;;4.45;;
36423;SDS011;22458;45.328;9.514;2023-05-25T04:25:25;8.60;;;4.55;;
36423;SDS011;22458;45.328;9.514;2023-05-25T04:27:51;5.88;;;4.78;;
36423;SDS011;22458;45.328;9.514;2023-05-25T04:30:41;5.78;;;4.60;;
36423;SDS011;22458;45.328;9.514;2023-05-25T04:33:18;7.55;;;4.78;;
36423;SDS011;22458;45.328;9.514;2023-05-25T04:35:57;6.85;;;4.38;;
36423;SDS011;22458;45.328;9.514;2023-05-25T04:38:23;7.80;;;5.15;;
36423;SDS011;22458;45.328;9.514;2023-05-25T04:40:50;7.38;;;4.82;;
36423;SDS011;22458;45.328;9.514;2023-05-25T04:43:18;7.90;;;4.93;;
36423;SDS011;22458;45.328;9.514;2023-05-25T04:45:45;6.65;;;5.18;;
36423;SDS011;22458;45.328;9.514;2023-05-25T04:48:12;8.07;;;4.97;;
36423;SDS011;22458;45.328;9.514;2023-05-25T04:50:38;6.03;;;4.57;;
36423;SDS011;22458;45.328;9.514;2023-05-25T04:53:04;5.82;;;5.22;;
36423;SDS011;22458;45.328;9.514;2023-05-25T04:55:30;9.57;;;5.63;;
36423;SDS011;22458;45.328;9.514;2023-05-25T04:57:57;7.82;;;5.30;;
36423;SDS011;22458;45.328;9.514;2023-05-25T05:00:23;7.25;;;4.97;;
36423;SDS011;22458;45.328;9.514;2023-05-25T05:02:52;6.18;;;4.72;;
36423;SDS011;22458;45.328;9.514;2023-05-25T05:05:20;8.30;;;5.05;;
36423;SDS011;22458;45.328;9.514;2023-05-25T05:07:47;6.18;;;5.43;;
36423;SDS011;22458;45.328;9.514;2023-05-25T05:10:13;6.95;;;5.63;;
36423;SDS011;22458;45.328;9.514;2023-05-25T05:12:43;6.45;;;4.40;;
36423;SDS011;22458;45.328;9.514;2023-05-25T05:15:09;7.68;;;5.75;;
36423;SDS011;22458;45.328;9.514;2023-05-25T05:17:37;7.10;;;4.68;;
36423;SDS011;22458;45.328;9.514;2023-05-25T05:20:03;7.38;;;5.38;;
36423;SDS011;22458;45.328;9.514;2023-05-25T05:22:32;7.05;;;5.15;;
36423;SDS011;22458;45.328;9.514;2023-05-25T05:24:59;5.93;;;5.15;;
36423;SDS011;22458;45.328;9.514;2023-05-25T05:27:27;6.72;;;4.93;;
36423;SDS011;22458;45.328;9.514;2023-05-25T05:30:01;7.57;;;5.00;;
36423;SDS011;22458;45.328;9.514;2023-05-25T05:32:27;7.20;;;5.05;;
36423;SDS011;22458;45.328;9.514;2023-05-25T05:34:54;6.05;;;4.70;;
36423;SDS011;22458;45.328;9.514;2023-05-25T05:37:39;6.28;;;4.80;;
36423;SDS011;22458;45.328;9.514;2023-05-25T05:40:05;5.75;;;5.15;;
36423;SDS011;22458;45.328;9.514;2023-05-25T05:42:33;6.97;;;4.50;;
36423;SDS011;22458;45.328;9.514;2023-05-25T05:44:59;8.13;;;5.10;;
36423;SDS011;22458;45.328;9.514;2023-05-25T05:47:25;5.13;;;4.40;;
36423;SDS011;22458;45.328;9.514;2023-05-25T05:49:50;6.90;;;4.90;;
36423;SDS011;22458;45.328;9.514;2023-05-25T05:52:16;7.50;;;4.90;;
36423;SDS011;22458;45.328;9.514;2023-05-25T05:54:42;5.13;;;4.40;;
36423;SDS011;22458;45.328;9.514;2023-05-25T05:57:10;5.07;;;4.57;;
36423;SDS011;22458;45.328;9.514;2023-05-25T05:59:36;5.70;;;4.38;;
36423;SDS011;22458;45.328;9.514;2023-05-25T06:02:02;4.47;;;4.07;;
36423;SDS011;22458;45.328;9.514;2023-05-25T06:04:29;6.07;;;4.18;;
36423;SDS011;22458;45.328;9.514;2023-05-25T06:06:56;6.18;;;4.03;;
36423;SDS011;22458;45.328;9.514;2023-05-25T06:09:23;6.20;;;4.32;;
36423;SDS011;22458;45.328;9.514;2023-05-25T06:11:50;5.80;;;3.58;;
36423;SDS011;22458;45.328;9.514;2023-05-25T06:14:17;7.35;;;4.55;;
36423;SDS011;22458;45.328;9.514;2023-05-25T06:16:43;5.65;;;4.25;;
36423;SDS011;22458;45.328;9.514;2023-05-25T06:19:08;5.50;;;4.30;;
36423;SDS011;22458;45.328;9.514;2023-05-25T06:21:35;4.15;;;3.72;;
36423;SDS011;22458;45.328;9.514;2023-05-25T06:24:01;7.38;;;3.28;;
36423;SDS011;22458;45.328;9.514;2023-05-25T06:26:27;3.90;;;3.40;;
36423;SDS011;22458;45.328;9.514;2023-05-25T06:28:53;4.28;;;3.88;;
36423;SDS011;22458;45.328;9.514;2023-05-25T06:31:19;6.82;;;3.90;;
36423;SDS011;22458;45.328;9.514;2023-05-25T06:33:45;4.03;;;3.35;;
36423;SDS011;22458;45.328;9.514;2023-05-25T06:36:11;5.45;;;3.90;;
36423;SDS011;22458;45.328;9.514;2023-05-25T06:38:39;5.05;;;3.38;;
36423;SDS011;22458;45.328;9.514;2023-05-25T06:41:06;5.57;;;3.47;;
36423;SDS011;22458;45.328;9.514;2023-05-25T06:43:34;5.75;;;3.20;;
36423;SDS011;22458;45.328;9.514;2023-05-25T06:46:18;5.40;;;4.07;;
36423;SDS011;22458;45.328;9.514;2023-05-25T06:48:45;3.75;;;3.20;;
36423;SDS011;22458;45.328;9.514;2023-05-25T06:51:12;3.85;;;2.92;;
36423;SDS011;22458;45.328;9.514;2023-05-25T06:53:37;4.35;;;3.13;;
36423;SDS011;22458;45.328;9.514;2023-05-25T06:56:06;4.05;;;3.65;;
36423;SDS011;22458;45.328;9.514;2023-05-25T06:58:32;4.20;;;2.72;;
36423;SDS011;22458;45.328;9.514;2023-05-25T07:00:57;3.17;;;2.72;;
36423;SDS011;22458;45.328;9.514;2023-05-25T07:03:25;4.15;;;2.85;;
36423;SDS011;22458;45.328;9.514;2023-05-25T07:05:51;4.72;;;3.03;;
36423;SDS011;22458;45.328;9.514;2023-05-25T07:08:16;5.22;;;3.17;;
36423;SDS011;22458;45.328;9.514;2023-05-25T07:10:42;9.13;;;3.47;;
36423;SDS011;22458;45.328;9.514;2023-05-25T07:13:08;5.25;;;3.53;;
36423;SDS011;22458;45.328;9.514;2023-05-25T07:15:35;4.00;;;3.47;;
36423;SDS011;22458;45.328;9.514;2023-05-25T07:18:01;3.47;;;3.05;;
36423;SDS011;22458;45.328;9.514;2023-05-25T07:20:27;4.18;;;2.88;;
36423;SDS011;22458;45.328;9.514;2023-05-25T07:22:54;3.80;;;3.15;;
36423;SDS011;22458;45.328;9.514;2023-05-25T07:25:19;4.18;;;3.17;;
36423;SDS011;22458;45.328;9.514;2023-05-25T07:27:48;3.63;;;3.13;;
36423;SDS011;22458;45.328;9.514;2023-05-25T07:30:14;4.70;;;3.22;;
36423;SDS011;22458;45.328;9.514;2023-05-25T07:32:40;6.05;;;3.28;;
36423;SDS011;22458;45.328;9.514;2023-05-25T07:35:06;3.42;;;3.13;;
36423;SDS011;22458;45.328;9.514;2023-05-25T07:37:32;4.80;;;3.20;;
36423;SDS011;22458;45.328;9.514;2023-05-25T07:39:58;9.05;;;3.83;;
36423;SDS011;22458;45.328;9.514;2023-05-25T07:42:25;3.60;;;3.20;;
36423;SDS011;22458;45.328;9.514;2023-05-25T07:44:57;3.80;;;3.33;;
36423;SDS011;22458;45.328;9.514;2023-05-25T07:47:23;5.75;;;4.05;;
36423;SDS011;22458;45.328;9.514;2023-05-25T07:49:49;4.18;;;3.20;;
36423;SDS011;22458;45.328;9.514;2023-05-25T07:52:15;4.90;;;3.33;;
36423;SDS011;22458;45.328;9.514;2023-05-25T07:54:40;4.70;;;3.80;;
36423;SDS011;22458;45.328;9.514;2023-05-25T07:57:06;5.68;;;3.60;;
36423;SDS011;22458;45.328;9.514;2023-05-25T07:59:32;3.83;;;3.20;;
36423;SDS011;22458;45.328;9.514;2023-05-25T08:01:58;6.55;;;4.38;;
36423;SDS011;22458;45.328;9.514;2023-05-25T08:04:24;4.13;;;3.63;;
36423;SDS011;22458;45.328;9.514;2023-05-25T08:06:50;4.50;;;3.80;;
36423;SDS011;22458;45.328;9.514;2023-05-25T08:09:16;3.83;;;3.42;;
36423;SDS011;22458;45.328;9.514;2023-05-25T08:11:41;4.95;;;3.70;;
36423;SDS011;22458;45.328;9.514;2023-05-25T08:14:09;16.08;;;4.57;;
36423;SDS011;22458;45.328;9.514;2023-05-25T08:16:35;5.72;;;4.10;;
36423;SDS011;22458;45.328;9.514;2023-05-25T08:19:01;6.25;;;3.63;;
36423;SDS011;22458;45.328;9.514;2023-05-25T08:21:27;8.27;;;3.80;;
36423;SDS011;22458;45.328;9.514;2023-05-25T08:23:52;5.43;;;3.95;;
36423;SDS011;22458;45.328;9.514;2023-05-25T08:26:18;4.07;;;3.50;;
36423;SDS011;22458;45.328;9.514;2023-05-25T08:28:44;4.30;;;3.60;;
36423;SDS011;22458;45.328;9.514;2023-05-25T08:31:09;4.45;;;3.35;;
36423;SDS011;22458;45.328;9.514;2023-05-25T08:33:36;3.33;;;2.90;;
36423;SDS011;22458;45.328;9.514;2023-05-25T08:36:02;5.38;;;3.47;;
36423;SDS011;22458;45.328;9.514;2023-05-25T08:38:28;4.15;;;3.75;;
36423;SDS011;22458;45.328;9.514;2023-05-25T08:40:59;5.50;;;3.85;;
36423;SDS011;22458;45.328;9.514;2023-05-25T08:43:28;4.65;;;3.90;;
36423;SDS011;22458;45.328;9.514;2023-05-25T08:45:56;6.03;;;3.40;;
36423;SDS011;22458;45.328;9.514;2023-05-25T08:48:28;5.00;;;3.53;;
36423;SDS011;22458;45.328;9.514;2023-05-25T08:51:00;5.22;;;3.60;;
36423;SDS011;22458;45.328;9.514;2023-05-25T08:53:32;5.97;;;4.05;;
36423;SDS011;22458;45.328;9.514;2023-05-25T08:56:01;5.80;;;3.55;;
36423;SDS011;22458;45.328;9.514;2023-05-25T08:58:31;4.43;;;3.67;;
36423;SDS011;22458;45.328;9.514;2023-05-25T09:01:03;15.00;;;4.80;;
36423;SDS011;22458;45.328;9.514;2023-05-25T09:03:33;4.53;;;4.13;;
36423;SDS011;22458;45.328;9.514;2023-05-25T09:06:01;5.20;;;4.30;;
36423;SDS011;22458;45.328;9.514;2023-05-25T09:08:27;7.07;;;4.45;;
36423;SDS011;22458;45.328;9.514;2023-05-25T09:10:53;5.57;;;4.38;;
36423;SDS011;22458;45.328;9.514;2023-05-25T09:13:21;4.13;;;3.60;;
36423;SDS011;22458;45.328;9.514;2023-05-25T09:15:47;7.05;;;3.72;;
36423;SDS011;22458;45.328;9.514;2023-05-25T09:18:13;5.85;;;4.70;;
36423;SDS011;22458;45.328;9.514;2023-05-25T09:20:39;5.18;;;4.05;;
36423;SDS011;22458;45.328;9.514;2023-05-25T09:23:05;6.63;;;4.90;;
36423;SDS011;22458;45.328;9.514;2023-05-25T09:25:32;5.07;;;4.53;;
36423;SDS011;22458;45.328;9.514;2023-05-25T09:27:59;6.07;;;4.43;;
36423;SDS011;22458;45.328;9.514;2023-05-25T09:30:25;6.32;;;4.30;;
36423;SDS011;22458;45.328;9.514;2023-05-25T09:33:07;6.57;;;4.90;;
36423;SDS011;22458;45.328;9.514;2023-05-25T09:35:34;5.45;;;4.80;;
36423;SDS011;22458;45.328;9.514;2023-05-25T09:38:01;5.90;;;5.25;;
36423;SDS011;22458;45.328;9.514;2023-05-25T09:40:27;7.32;;;4.95;;
36423;SDS011;22458;45.328;9.514;2023-05-25T09:42:52;6.35;;;5.70;;
36423;SDS011;22458;45.328;9.514;2023-05-25T09:45:18;9.50;;;5.60;;
36423;SDS011;22458;45.328;9.514;2023-05-25T09:47:44;8.30;;;5.43;;
36423;SDS011;22458;45.328;9.514;2023-05-25T09:50:10;5.97;;;5.25;;
36423;SDS011;22458;45.328;9.514;2023-05-25T09:52:36;6.65;;;4.88;;
36423;SDS011;22458;45.328;9.514;2023-05-25T09:55:02;6.70;;;4.78;;
36423;SDS011;22458;45.328;9.514;2023-05-25T09:57:28;8.18;;;6.18;;
36423;SDS011;22458;45.328;9.514;2023-05-25T09:59:54;6.75;;;5.65;;
36423;SDS011;22458;45.328;9.514;2023-05-25T10:02:20;6.15;;;5.05;;
36423;SDS011;22458;45.328;9.514;2023-05-25T10:04:46;7.97;;;6.63;;
36423;SDS011;22458;45.328;9.514;2023-05-25T10:07:12;6.93;;;6.00;;
36423;SDS011;22458;45.328;9.514;2023-05-25T10:09:39;7.85;;;6.82;;
36423;SDS011;22458;45.328;9.514;2023-05-25T10:12:06;8.88;;;6.25;;
36423;SDS011;22458;45.328;9.514;2023-05-25T10:14:33;6.22;;;5.05;;
36423;SDS011;22458;45.328;9.514;2023-05-25T10:17:01;7.45;;;5.78;;
36423;SDS011;22458;45.328;9.514;2023-05-25T10:19:40;6.72;;;5.90;;
36423;SDS011;22458;45.328;9.514;2023-05-25T10:22:39;8.90;;;6.15;;
36423;SDS011;22458;45.328;9.514;2023-05-25T10:25:12;8.15;;;5.90;;
36423;SDS011;22458;45.328;9.514;2023-05-25T10:28:01;7.07;;;6.18;;
36423;SDS011;22458;45.328;9.514;2023-05-25T10:30:29;7.90;;;7.00;;
36423;SDS011;22458;45.328;9.514;2023-05-25T10:32:55;9.15;;;6.65;;
36423;SDS011;22458;45.328;9.514;2023-05-25T10:35:23;7.22;;;6.53;;
36423;SDS011;22458;45.328;9.514;2023-05-25T10:37:52;6.80;;;6.20;;
36423;SDS011;22458;45.328;9.514;2023-05-25T10:40:21;8.75;;;6.10;;
36423;SDS011;22458;45.328;9.514;2023-05-25T10:42:51;9.98;;;6.40;;
36423;SDS011;22458;45.328;9.514;2023-05-25T10:45:16;7.32;;;6.13;;
36423;SDS011;22458;45.328;9.514;2023-05-25T10:47:43;7.03;;;5.65;;
36423;SDS011;22458;45.328;9.514;2023-05-25T10:52:45;6.32;;;5.72;;
36423;SDS011;22458;45.328;9.514;2023-05-25T10:55:22;7.47;;;6.07;;
36423;SDS011;22458;45.328;9.514;2023-05-25T11:00:37;5.40;;;4.88;;
36423;SDS011;22458;45.328;9.514;2023-05-25T11:03:03;6.78;;;5.43;;
36423;SDS011;22458;45.328;9.514;2023-05-25T11:05:34;5.10;;;4.55;;
36423;SDS011;22458;45.328;9.514;2023-05-25T11:08:01;5.43;;;4.25;;
36423;SDS011;22458;45.328;9.514;2023-05-25T11:13:32;4.47;;;4.03;;
36423;SDS011;22458;45.328;9.514;2023-05-25T11:18:59;4.85;;;4.40;;
36423;SDS011;22458;45.328;9.514;2023-05-25T11:24:01;4.60;;;3.95;;
36423;SDS011;22458;45.328;9.514;2023-05-25T11:26:34;7.90;;;4.72;;
36423;SDS011;22458;45.328;9.514;2023-05-25T11:29:05;5.63;;;4.55;;
36423;SDS011;22458;45.328;9.514;2023-05-25T11:31:37;5.53;;;4.25;;
36423;SDS011;22458;45.328;9.514;2023-05-25T11:34:03;6.30;;;4.82;;
36423;SDS011;22458;45.328;9.514;2023-05-25T11:36:30;5.65;;;5.05;;
36423;SDS011;22458;45.328;9.514;2023-05-25T11:38:59;7.45;;;4.97;;
36423;SDS011;22458;45.328;9.514;2023-05-25T11:41:29;6.30;;;5.00;;
36423;SDS011;22458;45.328;9.514;2023-05-25T11:44:01;6.03;;;5.40;;
36423;SDS011;22458;45.328;9.514;2023-05-25T11:46:28;5.68;;;5.05;;
36423;SDS011;22458;45.328;9.514;2023-05-25T11:48:57;5.30;;;4.72;;
36423;SDS011;22458;45.328;9.514;2023-05-25T11:51:24;6.63;;;5.47;;
36423;SDS011;22458;45.328;9.514;2023-05-25T11:53:52;7.70;;;6.22;;
36423;SDS011;22458;45.328;9.514;2023-05-25T11:56:18;6.72;;;5.78;;
36423;SDS011;22458;45.328;9.514;2023-05-25T11:58:45;6.55;;;5.95;;
36423;SDS011;22458;45.328;9.514;2023-05-25T12:01:20;6.85;;;5.60;;
36423;SDS011;22458;45.328;9.514;2023-05-25T12:03:48;7.05;;;5.63;;
36423;SDS011;22458;45.328;9.514;2023-05-25T12:06:30;6.50;;;5.78;;
36423;SDS011;22458;45.328;9.514;2023-05-25T12:09:01;6.60;;;5.88;;
36423;SDS011;22458;45.328;9.514;2023-05-25T12:11:33;5.88;;;5.28;;
36423;SDS011;22458;45.328;9.514;2023-05-25T12:14:02;7.28;;;5.05;;
36423;SDS011;22458;45.328;9.514;2023-05-25T12:16:31;6.80;;;5.55;;
36423;SDS011;22458;45.328;9.514;2023-05-25T12:18:58;7.40;;;5.68;;
36423;SDS011;22458;45.328;9.514;2023-05-25T12:21:25;5.45;;;4.95;;
36423;SDS011;22458;45.328;9.514;2023-05-25T12:23:52;6.10;;;5.22;;
36423;SDS011;22458;45.328;9.514;2023-05-25T12:26:19;8.65;;;5.53;;
36423;SDS011;22458;45.328;9.514;2023-05-25T12:29:05;6.90;;;5.05;;
36423;SDS011;22458;45.328;9.514;2023-05-25T12:34:01;4.90;;;4.40;;
36423;SDS011;22458;45.328;9.514;2023-05-25T12:36:39;6.22;;;4.65;;
36423;SDS011;22458;45.328;9.514;2023-05-25T12:39:07;5.03;;;4.47;;
36423;SDS011;22458;45.328;9.514;2023-05-25T12:46:42;5.30;;;4.43;;
36423;SDS011;22458;45.328;9.514;2023-05-25T12:52:07;4.93;;;4.43;;
36423;SDS011;22458;45.328;9.514;2023-05-25T12:54:35;5.32;;;4.82;;
36423;SDS011;22458;45.328;9.514;2023-05-25T12:57:12;5.97;;;4.25;;
36423;SDS011;22458;45.328;9.514;2023-05-25T12:59:40;6.68;;;3.60;;
36423;SDS011;22458;45.328;9.514;2023-05-25T13:02:07;3.60;;;3.30;;
36423;SDS011;22458;45.328;9.514;2023-05-25T13:04:35;5.97;;;3.42;;
36423;SDS011;22458;45.328;9.514;2023-05-25T13:07:02;5.45;;;3.40;;
36423;SDS011;22458;45.328;9.514;2023-05-25T13:09:28;3.80;;;3.30;;
36423;SDS011;22458;45.328;9.514;2023-05-25T13:11:55;7.38;;;3.72;;
36423;SDS011;22458;45.328;9.514;2023-05-25T13:14:21;3.78;;;2.97;;
36423;SDS011;22458;45.328;9.514;2023-05-25T13:16:48;5.90;;;3.10;;
36423;SDS011;22458;45.328;9.514;2023-05-25T13:19:15;5.80;;;2.88;;
36423;SDS011;22458;45.328;9.514;2023-05-25T13:21:42;3.90;;;3.42;;
36423;SDS011;22458;45.328;9.514;2023-05-25T13:24:08;3.55;;;3.25;;
36423;SDS011;22458;45.328;9.514;2023-05-25T13:26:34;4.32;;;3.00;;
36423;SDS011;22458;45.328;9.514;2023-05-25T13:28:59;6.53;;;3.20;;
36423;SDS011;22458;45.328;9.514;2023-05-25T13:31:25;3.63;;;2.90;;
36423;SDS011;22458;45.328;9.514;2023-05-25T13:33:51;7.35;;;3.25;;
36423;SDS011;22458;45.328;9.514;2023-05-25T13:36:17;4.18;;;3.20;;
36423;SDS011;22458;45.328;9.514;2023-05-25T13:38:43;4.95;;;3.22;;
36423;SDS011;22458;45.328;9.514;2023-05-25T13:41:09;5.75;;;3.17;;
36423;SDS011;22458;45.328;9.514;2023-05-25T13:43:35;3.53;;;2.85;;
36423;SDS011;22458;45.328;9.514;2023-05-25T13:46:01;3.55;;;2.83;;
36423;SDS011;22458;45.328;9.514;2023-05-25T13:48:27;3.85;;;3.20;;
36423;SDS011;22458;45.328;9.514;2023-05-25T13:50:54;4.93;;;2.90;;
36423;SDS011;22458;45.328;9.514;2023-05-25T13:53:20;8.07;;;3.35;;
36423;SDS011;22458;45.328;9.514;2023-05-25T13:55:47;4.38;;;3.58;;
36423;SDS011;22458;45.328;9.514;2023-05-25T13:58:12;4.57;;;2.63;;
36423;SDS011;22458;45.328;9.514;2023-05-25T14:00:38;6.43;;;3.00;;
36423;SDS011;22458;45.328;9.514;2023-05-25T14:03:04;5.10;;;2.95;;
36423;SDS011;22458;45.328;9.514;2023-05-25T14:05:30;4.95;;;2.88;;
36423;SDS011;22458;45.328;9.514;2023-05-25T14:07:56;4.47;;;3.72;;
36423;SDS011;22458;45.328;9.514;2023-05-25T14:10:25;4.10;;;3.40;;
36423;SDS011;22458;45.328;9.514;2023-05-25T14:12:50;5.78;;;3.00;;
36423;SDS011;22458;45.328;9.514;2023-05-25T14:15:16;5.32;;;2.95;;
36423;SDS011;22458;45.328;9.514;2023-05-25T14:17:42;3.63;;;2.80;;
36423;SDS011;22458;45.328;9.514;2023-05-25T14:20:08;4.38;;;2.80;;
36423;SDS011;22458;45.328;9.514;2023-05-25T14:22:34;4.50;;;2.90;;
36423;SDS011;22458;45.328;9.514;2023-05-25T14:25:00;3.10;;;2.63;;
36423;SDS011;22458;45.328;9.514;2023-05-25T14:27:26;8.18;;;3.40;;
36423;SDS011;22458;45.328;9.514;2023-05-25T14:29:52;3.80;;;3.17;;
36423;SDS011;22458;45.328;9.514;2023-05-25T14:32:18;5.60;;;3.45;;
36423;SDS011;22458;45.328;9.514;2023-05-25T14:34:44;6.78;;;3.20;;
36423;SDS011;22458;45.328;9.514;2023-05-25T14:37:10;5.68;;;3.40;;
36423;SDS011;22458;45.328;9.514;2023-05-25T14:39:36;4.07;;;3.38;;
36423;SDS011;22458;45.328;9.514;2023-05-25T14:42:02;3.17;;;2.72;;
36423;SDS011;22458;45.328;9.514;2023-05-25T14:44:28;5.43;;;2.90;;
36423;SDS011;22458;45.328;9.514;2023-05-25T14:46:54;4.57;;;3.10;;
36423;SDS011;22458;45.328;9.514;2023-05-25T14:49:20;4.72;;;3.55;;
36423;SDS011;22458;45.328;9.514;2023-05-25T14:54:15;3.80;;;3.40;;
36423;SDS011;22458;45.328;9.514;2023-05-25T14:56:41;5.80;;;3.25;;
36423;SDS011;22458;45.328;9.514;2023-05-25T14:59:06;5.70;;;3.80;;
36423;SDS011;22458;45.328;9.514;2023-05-25T15:01:32;3.58;;;3.28;;
36423;SDS011;22458;45.328;9.514;2023-05-25T15:04:00;4.05;;;3.55;;
36423;SDS011;22458;45.328;9.514;2023-05-25T15:06:26;5.00;;;3.80;;
36423;SDS011;22458;45.328;9.514;2023-05-25T15:08:52;4.05;;;3.35;;
36423;SDS011;22458;45.328;9.514;2023-05-25T15:11:18;5.65;;;3.35;;
36423;SDS011;22458;45.328;9.514;2023-05-25T15:13:44;6.38;;;3.50;;
36423;SDS011;22458;45.328;9.514;2023-05-25T15:16:10;5.63;;;3.58;;
36423;SDS011;22458;45.328;9.514;2023-05-25T15:18:36;4.05;;;3.50;;
36423;SDS011;22458;45.328;9.514;2023-05-25T15:21:02;5.68;;;2.97;;